Barcelonnette - Saint-Pons Airport


Codes: LFMR/BAE
Name: Barcelonnette - Saint-Pons Airport
City: Le Castellet
Country: France
Elevation: 3714 ft.
Wikipedia:

Photos at Barcelonnette - Saint-Pons Airport


   Photos courtesy of SpottingLog. You can add your own sightings and photos by signing up for a free trial today.



No photos found.

Weather at Barcelonnette - Saint-Pons Airport


Time (UTC)DescriptionTempratureWindCloud coverageVisibilityPressureHumidity
26-Jun-2024 00:00Overcast Clouds14°C2 mph, E100%10000m1015hPa87%
26-Jun-2024 03:00Overcast Clouds13°C2 mph, NE97%10000m1014hPa86%
26-Jun-2024 06:00Overcast Clouds15°C2 mph, NE97%10000m1014hPa78%
26-Jun-2024 09:00Overcast Clouds15°C0 mph, SW100%10000m1015hPa81%
26-Jun-2024 12:00Light Rain18°C4 mph, NW100%10000m1015hPa68%
26-Jun-2024 15:00Light Rain18°C7 mph, W87%7692m1015hPa88%
26-Jun-2024 18:00Light Rain17°C4 mph, NW95%10000m1015hPa90%
26-Jun-2024 21:00Broken Clouds14°C2 mph, N62%0m1016hPa99%
27-Jun-2024 00:00Broken Clouds14°C4 mph, NE81%10000m1016hPa97%
27-Jun-2024 03:00Scattered Clouds14°C4 mph, NE41%10000m1015hPa93%
27-Jun-2024 06:00Few Clouds17°C2 mph, N21%10000m1015hPa78%
27-Jun-2024 09:00Clear Sky21°C7 mph, NW1%10000m1015hPa66%
27-Jun-2024 12:00Few Clouds24°C7 mph, W12%10000m1015hPa58%
27-Jun-2024 15:00Broken Clouds24°C7 mph, NW66%10000m1016hPa56%
27-Jun-2024 18:00Scattered Clouds23°C4 mph, NW35%10000m1016hPa70%
27-Jun-2024 21:00Clear Sky18°C2 mph, NE5%10000m1019hPa81%
28-Jun-2024 00:00Few Clouds18°C4 mph, NE23%10000m1019hPa81%
28-Jun-2024 03:00Overcast Clouds17°C4 mph, NE100%10000m1020hPa77%
28-Jun-2024 06:00Overcast Clouds21°C2 mph, N99%10000m1020hPa68%
28-Jun-2024 09:00Broken Clouds25°C7 mph, W71%10000m1019hPa52%
28-Jun-2024 12:00Broken Clouds27°C7 mph, W79%10000m1020hPa49%
28-Jun-2024 15:00Few Clouds27°C7 mph, W17%10000m1020hPa51%
28-Jun-2024 18:00Clear Sky25°C4 mph, W10%10000m1020hPa72%
28-Jun-2024 21:00Overcast Clouds21°C4 mph, E100%10000m1022hPa80%
29-Jun-2024 00:00Overcast Clouds20°C7 mph, SE90%10000m1021hPa75%
29-Jun-2024 03:00Clear Sky19°C7 mph, SE10%10000m1021hPa73%
29-Jun-2024 06:00Few Clouds22°C4 mph, SE18%10000m1021hPa74%
29-Jun-2024 09:00Scattered Clouds27°C7 mph, S49%10000m1018hPa43%
29-Jun-2024 12:00Broken Clouds26°C7 mph, S74%10000m1017hPa52%
29-Jun-2024 15:00Light Rain23°C11 mph, E100%10000m1016hPa65%
29-Jun-2024 18:00Overcast Clouds21°C9 mph, SE88%10000m1015hPa71%
29-Jun-2024 21:00Clear Sky17°C7 mph, SE8%10000m1017hPa83%
30-Jun-2024 00:00Scattered Clouds15°C4 mph, SE29%10000m1016hPa83%
30-Jun-2024 03:00Clear Sky15°C2 mph, SE5%10000m1015hPa88%
30-Jun-2024 06:00Clear Sky18°C2 mph, SW6%10000m1014hPa76%
30-Jun-2024 09:00Light Rain20°C7 mph, SW2%10000m1014hPa71%
30-Jun-2024 12:00Light Rain20°C7 mph, SW33%10000m1014hPa77%
30-Jun-2024 15:00Light Rain19°C7 mph, W62%10000m1014hPa81%
30-Jun-2024 18:00Light Rain17°C7 mph, W61%10000m1014hPa85%
30-Jun-2024 21:00Light Rain14°C7 mph, W25%10000m1016hPa93%